TimeCDT,TemperatureF,Dew PointF,Humidity,Sea Level PressureIn,VisibilityMPH,Wind Direction,Wind SpeedMPH,Gust SpeedMPH,PrecipitationIn,Events,Conditions,WindDirDegrees,DateUTC
12:15 AM,77.9,67.1,69,29.98,5.0,Calm,Calm,-,N/A,,Haze,0,2013-08-19 05:15:00
12:35 AM,77.9,67.1,69,29.98,5.0,Calm,Calm,-,N/A,,Haze,0,2013-08-19 05:35:00
12:55 AM,77.4,67.1,71,29.98,5.0,Calm,Calm,-,N/A,,Haze,0,2013-08-19 05:55:00
1:15 AM,77.0,67.5,72,29.98,7.0,Calm,Calm,-,N/A,,Clear,0,2013-08-19 06:15:00
1:35 AM,75.9,66.4,72,29.98,5.0,Calm,Calm,-,N/A,,Haze,0,2013-08-19 06:35:00
1:55 AM,74.3,65.7,74,29.98,5.0,Calm,Calm,-,N/A,,Haze,0,2013-08-19 06:55:00
2:15 AM,75.4,67.3,76,29.98,5.0,Calm,Calm,-,N/A,,Haze,0,2013-08-19 07:15:00
2:35 AM,74.7,66.0,74,29.98,7.0,Calm,Calm,-,N/A,,Clear,0,2013-08-19 07:35:00
2:55 AM,76.1,68.5,77,29.97,5.0,Calm,Calm,-,N/A,,Haze,0,2013-08-19 07:55:00
3:15 AM,76.1,68.5,77,29.97,5.0,Calm,Calm,-,N/A,,Haze,0,2013-08-19 08:15:00
3:35 AM,75.2,68.2,79,29.97,5.0,Calm,Calm,-,N/A,,Haze,0,2013-08-19 08:35:00
3:55 AM,74.5,68.2,81,29.97,5.0,Calm,Calm,-,N/A,,Haze,0,2013-08-19 08:55:00
4:15 AM,74.7,68.5,81,29.96,5.0,Calm,Calm,-,N/A,,Haze,0,2013-08-19 09:15:00
4:35 AM,73.4,67.6,82,29.96,7.0,Calm,Calm,-,N/A,,Clear,0,2013-08-19 09:35:00
4:55 AM,72.5,67.3,84,29.96,5.0,Calm,Calm,-,N/A,,Haze,0,2013-08-19 09:55:00
5:15 AM,72.7,68.0,85,29.97,5.0,Calm,Calm,-,N/A,,Haze,0,2013-08-19 10:15:00
5:35 AM,72.1,67.5,85,29.96,5.0,Calm,Calm,-,N/A,,Clear,0,2013-08-19 10:35:00
5:55 AM,71.6,67.1,86,29.97,5.0,Calm,Calm,-,N/A,,Haze,0,2013-08-19 10:55:00
6:15 AM,70.7,66.7,87,29.97,5.0,Calm,Calm,-,N/A,,Clear,0,2013-08-19 11:15:00
6:35 AM,70.9,67.1,88,29.98,5.0,Calm,Calm,-,N/A,,Clear,0,2013-08-19 11:35:00
6:55 AM,72.0,68.0,87,29.98,7.0,Calm,Calm,-,N/A,,Clear,0,2013-08-19 11:55:00
7:15 AM,71.2,67.1,87,29.99,7.0,Calm,Calm,-,N/A,,Clear,0,2013-08-19 12:15:00
7:35 AM,71.6,66.7,85,29.99,7.0,Calm,Calm,-,N/A,,Clear,0,2013-08-19 12:35:00
7:55 AM,73.4,68.0,83,30.00,7.0,Calm,Calm,-,N/A,,Clear,0,2013-08-19 12:55:00
8:15 AM,77.4,70.7,80,30.00,10.0,Calm,Calm,-,N/A,,Scattered Clouds,0,2013-08-19 13:15:00
8:35 AM,78.6,71.4,78,30.01,10.0,Calm,Calm,-,N/A,,Scattered Clouds,0,2013-08-19 13:35:00
8:55 AM,79.2,71.4,77,30.01,10.0,Calm,Calm,-,N/A,,Clear,0,2013-08-19 13:55:00
9:15 AM,81.3,72.0,73,30.02,10.0,Calm,Calm,-,N/A,,Clear,0,2013-08-19 14:15:00
9:35 AM,83.7,72.7,69,30.02,10.0,Calm,Calm,-,N/A,,Clear,0,2013-08-19 14:35:00
9:55 AM,85.1,72.9,67,30.02,7.0,Calm,Calm,-,N/A,,Clear,0,2013-08-19 14:55:00
10:15 AM,87.1,71.4,59,30.03,10.0,NE,9.2,-,N/A,,Scattered Clouds,50,2013-08-19 15:15:00
10:35 AM,87.3,70.0,56,30.03,4.0,Calm,Calm,-,N/A,,Haze,0,2013-08-19 15:35:00
10:55 AM,88.3,69.6,54,30.03,4.0,East,9.2,16.1,N/A,,Haze,80,2013-08-19 15:55:00
11:15 AM,90.0,69.1,50,30.02,7.0,NE,10.4,-,N/A,,Scattered Clouds,50,2013-08-19 16:15:00
11:35 AM,90.9,67.8,47,30.02,4.0,East,11.5,16.1,N/A,,Haze,100,2013-08-19 16:35:00
11:55 AM,91.4,63.7,40,30.02,4.0,East,11.5,19.6,N/A,,Haze,100,2013-08-19 16:55:00
12:15 PM,92.7,65.1,40,30.02,10.0,East,13.8,19.6,N/A,,Clear,80,2013-08-19 17:15:00
12:35 PM,93.4,65.3,39,30.00,4.0,ESE,4.6,16.1,N/A,,Haze,120,2013-08-19 17:35:00
12:55 PM,93.9,61.9,34,30.00,4.0,East,4.6,19.6,N/A,,Haze,80,2013-08-19 17:55:00
1:15 PM,94.3,60.1,32,30.00,5.0,ESE,15.0,19.6,N/A,,Haze,120,2013-08-19 18:15:00
1:35 PM,94.6,61.5,33,29.99,5.0,ESE,12.7,21.9,N/A,,Haze,110,2013-08-19 18:35:00
1:55 PM,94.8,61.5,33,29.99,5.0,NE,13.8,19.6,N/A,,Haze,50,2013-08-19 18:55:00
2:15 PM,94.3,60.4,32,29.98,5.0,ESE,9.2,20.7,N/A,,Haze,120,2013-08-19 19:15:00
2:35 PM,94.8,61.2,33,29.97,5.0,East,13.8,20.7,N/A,,Haze,90,2013-08-19 19:35:00
2:55 PM,95.9,59.7,30,29.96,4.0,East,15.0,23.0,N/A,,Haze,80,2013-08-19 19:55:00
3:15 PM,95.4,61.3,32,29.95,10.0,East,10.4,18.4,N/A,,Clear,90,2013-08-19 20:15:00
3:35 PM,95.4,61.2,32,29.94,10.0,ESE,12.7,18.4,N/A,,Clear,110,2013-08-19 20:35:00
3:55 PM,95.2,60.1,31,29.94,10.0,East,12.7,19.6,N/A,,Clear,100,2013-08-19 20:55:00
4:15 PM,95.5,60.8,31,29.93,10.0,ESE,13.8,19.6,N/A,,Clear,110,2013-08-19 21:15:00
4:35 PM,95.9,62.2,33,29.92,10.0,ESE,11.5,21.9,N/A,,Clear,120,2013-08-19 21:35:00
4:55 PM,94.3,63.9,36,29.92,10.0,East,17.3,20.7,N/A,,Clear,90,2013-08-19 21:55:00
5:15 PM,94.8,65.1,37,29.92,10.0,East,13.8,17.3,N/A,,Clear,100,2013-08-19 22:15:00
5:35 PM,94.1,63.5,36,29.91,10.0,East,11.5,20.7,N/A,,Clear,100,2013-08-19 22:35:00
5:55 PM,93.6,62.1,35,29.92,10.0,East,18.4,-,N/A,,Clear,80,2013-08-19 22:55:00
6:15 PM,92.8,62.6,36,29.92,10.0,East,13.8,-,N/A,,Clear,100,2013-08-19 23:15:00
6:35 PM,91.9,64.0,39,29.92,10.0,East,15.0,-,N/A,,Clear,90,2013-08-19 23:35:00
6:55 PM,90.9,65.1,42,29.92,10.0,East,12.7,19.6,N/A,,Clear,100,2013-08-19 23:55:00
7:15 PM,89.6,66.9,47,29.92,10.0,East,15.0,-,N/A,Rain,Rain,90,2013-08-20 00:15:00
7:35 PM,88.7,67.3,49,29.92,10.0,East,10.4,16.1,N/A,,Clear,100,2013-08-20 00:35:00
7:55 PM,87.4,67.8,52,29.92,10.0,East,12.7,19.6,N/A,Rain,Rain,100,2013-08-20 00:55:00
8:15 PM,86.7,68.5,55,29.92,10.0,East,12.7,17.3,N/A,Rain,Heavy Rain,100,2013-08-20 01:15:00
8:35 PM,86.0,70.0,59,29.92,10.0,ESE,4.6,16.1,N/A,Rain,Heavy Rain,110,2013-08-20 01:35:00
8:55 PM,85.3,71.4,63,29.93,7.0,ESE,8.1,-,N/A,Rain,Heavy Rain,110,2013-08-20 01:55:00
9:15 PM,84.7,71.6,65,29.94,10.0,ESE,10.4,-,N/A,Rain,Heavy Rain,120,2013-08-20 02:15:00
9:35 PM,84.6,71.6,65,29.94,7.0,ESE,11.5,-,N/A,Rain,Heavy Rain,110,2013-08-20 02:35:00
9:55 PM,84.2,72.5,68,29.94,10.0,Calm,Calm,-,N/A,Rain,Rain,0,2013-08-20 02:55:00
10:15 PM,83.7,72.5,69,29.95,10.0,Calm,Calm,-,N/A,Rain,Heavy Rain,0,2013-08-20 03:15:00
10:35 PM,83.5,72.5,69,29.95,10.0,Calm,Calm,-,N/A,Rain,Rain,0,2013-08-20 03:35:00
10:55 PM,83.3,72.5,70,29.95,10.0,Calm,Calm,-,N/A,Rain,Light Rain,0,2013-08-20 03:55:00
11:15 PM,82.9,72.7,71,29.95,10.0,Calm,Calm,-,N/A,Rain,Light Rain,0,2013-08-20 04:15:00
11:35 PM,82.6,72.5,71,29.95,10.0,Calm,Calm,-,N/A,Rain,Rain,0,2013-08-20 04:35:00
11:55 PM,82.0,72.5,73,29.95,10.0,Calm,Calm,-,N/A,Rain,Rain,0,2013-08-20 04:55:00